createdAt,value
2023-05-23T00:00:15.689Z,3.17
2023-05-23T00:05:19.166Z,2.53
2023-05-23T00:10:22.901Z,3.10
2023-05-23T00:15:25.891Z,2.47
2023-05-23T00:20:30.560Z,2.05
2023-05-23T00:25:36.712Z,3.28
2023-05-23T00:30:40.175Z,2.67
2023-05-23T00:35:43.474Z,2.70
2023-05-23T00:40:46.768Z,2.15
2023-05-23T00:45:50.048Z,2.70
2023-05-23T00:50:54.491Z,3.22
2023-05-23T00:55:58.101Z,2.80
2023-05-23T01:01:01.940Z,3.05
2023-05-23T01:06:04.893Z,3.58
2023-05-23T01:11:22.159Z,2.80
2023-05-23T01:16:49.148Z,3.25
2023-05-23T01:21:55.466Z,2.75
2023-05-23T01:27:39.282Z,3.35
2023-05-23T01:32:43.677Z,3.10
2023-05-23T01:37:46.722Z,3.30
2023-05-23T01:42:50.264Z,2.90
2023-05-23T01:47:55.083Z,2.97
2023-05-23T01:52:58.980Z,3.10
2023-05-23T01:58:03.113Z,3.30
2023-05-23T02:03:06.464Z,2.78
2023-05-23T02:08:09.609Z,2.80
2023-05-23T02:13:12.662Z,2.92
2023-05-23T02:18:15.562Z,2.90
2023-05-23T02:23:18.542Z,2.90
2023-05-23T02:28:22.401Z,4.45
2023-05-23T02:33:25.434Z,4.35
2023-05-23T02:38:29.631Z,5.03
2023-05-23T02:43:32.462Z,3.72
2023-05-23T02:48:35.364Z,3.13
2023-05-23T02:53:39.119Z,4.73
2023-05-23T02:58:42.614Z,3.90
2023-05-23T03:03:46.137Z,3.67
2023-05-23T03:08:49.320Z,3.80
2023-05-23T03:13:52.316Z,3.28
2023-05-23T03:18:55.560Z,3.77
2023-05-23T03:23:58.455Z,3.50
2023-05-23T03:29:02.749Z,3.30
2023-05-23T03:34:05.869Z,3.65
2023-05-23T03:39:09.189Z,3.20
2023-05-23T03:44:12.496Z,3.50
2023-05-23T03:49:15.566Z,5.10
2023-05-23T03:54:19.223Z,4.50
2023-05-23T03:59:22.363Z,4.43
2023-05-23T04:04:26.374Z,4.28
2023-05-23T04:09:29.525Z,3.03
2023-05-23T04:14:33.708Z,4.97
2023-05-23T04:19:36.781Z,3.72
2023-05-23T04:24:40.022Z,3.88
2023-05-23T04:29:44.397Z,3.55
2023-05-23T04:34:47.541Z,4.07
2023-05-23T04:39:51.396Z,3.30
2023-05-23T04:44:56.972Z,3.17
2023-05-23T04:50:00.609Z,3.88
2023-05-23T04:55:04.307Z,3.38
2023-05-23T05:00:11.664Z,3.78
2023-05-23T05:05:14.668Z,3.03
2023-05-23T05:10:18.062Z,3.58
2023-05-23T05:15:21.110Z,4.07
2023-05-23T05:20:24.118Z,3.65
2023-05-23T05:25:31.929Z,4.53
2023-05-23T05:30:38.915Z,3.58
2023-05-23T05:35:42.324Z,4.38
2023-05-23T05:40:45.748Z,3.08
2023-05-23T05:45:49.117Z,3.75
2023-05-23T05:50:51.976Z,3.70
2023-05-23T05:55:55.521Z,3.10
2023-05-23T06:00:59.205Z,3.70
2023-05-23T06:06:02.217Z,3.35
2023-05-23T06:11:05.605Z,2.95
2023-05-23T06:16:08.785Z,2.80
2023-05-23T06:21:11.859Z,2.78
2023-05-23T06:26:14.884Z,3.03
2023-05-23T06:31:18.087Z,3.00
2023-05-23T06:36:21.138Z,2.78
2023-05-23T06:41:24.169Z,2.80
2023-05-23T06:46:27.465Z,2.88
2023-05-23T06:51:31.422Z,3.58
2023-05-23T06:56:37.213Z,3.58
2023-05-23T07:01:40.913Z,3.83
2023-05-23T07:06:43.951Z,2.80
2023-05-23T07:11:46.825Z,3.70
2023-05-23T07:16:49.809Z,3.20
2023-05-23T07:21:52.653Z,3.67
2023-05-23T07:26:55.792Z,2.97
2023-05-23T07:31:59.677Z,2.92
2023-05-23T07:37:02.718Z,2.60
2023-05-23T07:42:05.889Z,2.85
2023-05-23T07:47:08.732Z,2.92
2023-05-23T07:52:11.759Z,2.80
2023-05-23T07:57:16.770Z,2.88
2023-05-23T08:02:20.981Z,2.90
2023-05-23T08:07:24.138Z,3.35
2023-05-23T08:12:27.459Z,3.00
2023-05-23T08:17:30.733Z,2.65
2023-05-23T08:22:33.944Z,3.47
2023-05-23T08:27:36.939Z,3.65
2023-05-23T08:32:39.876Z,3.13
2023-05-23T08:37:43.160Z,3.58
2023-05-23T08:42:50.076Z,3.42
2023-05-23T08:47:54.706Z,3.30
2023-05-23T08:52:59.662Z,3.65
2023-05-23T08:58:04.068Z,3.50
2023-05-23T09:03:09.057Z,3.22
2023-05-23T09:08:13.317Z,3.25
2023-05-23T09:13:23.627Z,3.10
2023-05-23T09:18:27.985Z,3.50
2023-05-23T09:23:35.657Z,3.20
2023-05-23T09:28:40.545Z,3.50
2023-05-23T09:33:48.510Z,3.28
2023-05-23T09:38:52.740Z,3.30
2023-05-23T09:43:56.563Z,3.33
2023-05-23T09:49:00.393Z,3.58
2023-05-23T09:54:03.531Z,3.20
2023-05-23T09:59:08.764Z,3.00
2023-05-23T10:04:12.901Z,2.75
2023-05-23T10:09:19.202Z,3.05
2023-05-23T10:14:22.191Z,3.22
2023-05-23T10:19:47.660Z,3.17
2023-05-23T10:24:51.402Z,3.72
2023-05-23T10:29:54.702Z,2.97
2023-05-23T10:35:04.605Z,3.50
2023-05-23T10:40:21.460Z,3.47
2023-05-23T10:45:25.254Z,3.40
2023-05-23T10:50:37.453Z,3.05
2023-05-23T10:55:40.678Z,3.08
2023-05-23T11:01:07.931Z,3.28
2023-05-23T11:06:32.953Z,3.47
2023-05-23T11:11:52.235Z,3.03
2023-05-23T11:16:56.130Z,3.25
2023-05-23T11:22:02.713Z,3.15
2023-05-23T11:27:12.626Z,2.83
2023-05-23T11:32:17.777Z,3.22
2023-05-23T11:37:25.942Z,3.20
2023-05-23T11:42:30.176Z,3.15
2023-05-23T11:47:40.660Z,3.20
2023-05-23T11:52:44.667Z,3.42
2023-05-23T11:57:49.350Z,3.55
2023-05-23T12:02:52.377Z,3.70
2023-05-23T12:07:55.492Z,4.43
2023-05-23T12:12:58.658Z,3.75
2023-05-23T12:18:02.965Z,3.75
2023-05-23T12:23:06.630Z,3.55
2023-05-23T12:28:13.669Z,3.95
2023-05-23T12:33:20.214Z,3.20
2023-05-23T12:38:23.830Z,3.22
2023-05-23T12:43:27.057Z,2.42
2023-05-23T12:48:30.191Z,2.70
2023-05-23T12:53:33.304Z,2.90
2023-05-23T12:58:36.407Z,2.95
2023-05-23T13:03:39.685Z,2.88
2023-05-23T13:08:44.165Z,2.88
2023-05-23T13:13:47.404Z,3.30
2023-05-23T13:18:50.497Z,4.10
2023-05-23T13:23:53.728Z,2.97
2023-05-23T13:28:56.577Z,4.07
2023-05-23T13:33:59.663Z,3.25
2023-05-23T13:39:05.997Z,3.13
2023-05-23T13:44:09.123Z,3.20
2023-05-23T13:49:12.389Z,3.17
2023-05-23T13:54:16.007Z,3.35
2023-05-23T13:59:21.343Z,2.80
2023-05-23T14:04:24.309Z,3.10
2023-05-23T14:09:27.389Z,3.17
2023-05-23T14:14:30.491Z,2.58
2023-05-23T14:19:33.677Z,2.85
2023-05-23T14:24:37.054Z,2.78
2023-05-23T14:29:40.209Z,2.38
2023-05-23T14:34:43.154Z,2.95
2023-05-23T14:39:46.300Z,1.95
2023-05-23T14:44:49.227Z,1.98
2023-05-23T14:49:52.127Z,2.13
2023-05-23T14:54:55.195Z,2.97
2023-05-23T14:59:58.291Z,2.60
2023-05-23T15:05:01.403Z,2.17
2023-05-23T15:10:06.799Z,2.40
2023-05-23T15:15:10.771Z,2.30
2023-05-23T15:20:13.850Z,2.30
2023-05-23T15:25:19.041Z,2.60
2023-05-23T15:30:25.153Z,2.58
2023-05-23T15:35:28.186Z,2.67
2023-05-23T15:40:31.181Z,2.28
2023-05-23T15:45:34.255Z,2.00
2023-05-23T15:50:37.494Z,2.35
2023-05-23T15:55:42.573Z,2.10
2023-05-23T16:00:45.887Z,2.53
2023-05-23T16:05:48.973Z,1.88
2023-05-23T16:10:52.416Z,1.75
2023-05-23T16:15:55.544Z,1.90
2023-05-23T16:20:58.658Z,2.67
2023-05-23T16:26:01.674Z,2.20
2023-05-23T16:31:04.733Z,2.65
2023-05-23T16:36:07.957Z,2.40
2023-05-23T16:41:11.011Z,2.30
2023-05-23T16:46:14.410Z,2.40
2023-05-23T16:51:17.571Z,2.40
2023-05-23T16:56:21.604Z,2.33
2023-05-23T17:01:24.600Z,2.35
2023-05-23T17:06:27.647Z,3.15
2023-05-23T17:11:31.024Z,3.20
2023-05-23T17:16:34.488Z,3.20
2023-05-23T17:21:37.798Z,3.08
2023-05-23T17:26:40.849Z,5.40
2023-05-23T17:31:44.465Z,3.72
2023-05-23T17:36:47.362Z,3.67
2023-05-23T17:41:50.330Z,3.15
2023-05-23T17:46:53.529Z,3.90
2023-05-23T17:51:56.948Z,3.72
2023-05-23T17:56:59.763Z,3.75
2023-05-23T18:02:04.830Z,3.80
2023-05-23T18:07:12.947Z,3.25
2023-05-23T18:12:16.772Z,3.40
2023-05-23T18:17:19.968Z,2.45
2023-05-23T18:22:24.762Z,3.00
2023-05-23T18:27:27.737Z,3.00
2023-05-23T18:32:31.514Z,2.92
2023-05-23T18:37:34.517Z,2.80
2023-05-23T18:42:37.746Z,2.80
2023-05-23T18:47:40.747Z,3.05
2023-05-23T18:52:43.719Z,3.00
2023-05-23T18:57:46.809Z,2.60
2023-05-23T19:02:49.943Z,3.10
2023-05-23T19:07:53.092Z,2.63
2023-05-23T19:12:56.930Z,2.67
2023-05-23T19:17:59.781Z,3.13
2023-05-23T19:23:03.186Z,2.90
2023-05-23T19:28:06.632Z,2.92
2023-05-23T19:33:10.193Z,2.70
2023-05-23T19:38:13.345Z,2.78
2023-05-23T19:43:16.225Z,3.05
2023-05-23T19:48:19.326Z,3.28
2023-05-23T19:53:23.008Z,3.17
2023-05-23T19:58:26.021Z,3.55
2023-05-23T20:03:29.599Z,3.60
2023-05-23T20:08:32.936Z,4.00
2023-05-23T20:13:37.804Z,2.88
2023-05-23T20:18:43.149Z,3.45
2023-05-23T20:23:46.516Z,3.70
2023-05-23T20:28:49.776Z,3.72
2023-05-23T20:33:53.028Z,3.40
2023-05-23T20:38:56.294Z,4.70
2023-05-23T20:44:01.798Z,3.70
2023-05-23T20:49:05.003Z,5.00
2023-05-23T20:54:08.058Z,4.03
2023-05-23T20:59:12.318Z,3.53
2023-05-23T21:04:18.132Z,4.07
2023-05-23T21:09:21.881Z,3.55
2023-05-23T21:14:25.414Z,3.90
2023-05-23T21:19:28.272Z,3.95
2023-05-23T21:24:31.608Z,3.40
2023-05-23T21:29:35.382Z,4.03
2023-05-23T21:34:38.411Z,4.65
2023-05-23T21:39:51.237Z,4.43
2023-05-23T21:44:55.732Z,3.95
2023-05-23T21:49:58.747Z,3.70
2023-05-23T21:55:01.969Z,3.90
2023-05-23T22:00:05.878Z,3.88
2023-05-23T22:05:10.650Z,4.35
2023-05-23T22:10:13.697Z,3.25
2023-05-23T22:15:16.836Z,3.80
2023-05-23T22:20:20.731Z,3.50
2023-05-23T22:25:25.126Z,3.60
2023-05-23T22:30:28.914Z,3.38
2023-05-23T22:35:32.180Z,3.97
2023-05-23T22:40:35.056Z,4.40
2023-05-23T22:45:42.608Z,3.58
2023-05-23T22:50:45.901Z,4.07
2023-05-23T22:55:49.953Z,3.22
2023-05-23T23:00:53.020Z,3.40
2023-05-23T23:05:57.673Z,3.58
2023-05-23T23:11:00.747Z,4.63
2023-05-23T23:16:04.700Z,3.92
2023-05-23T23:21:07.960Z,4.00
2023-05-23T23:26:11.844Z,4.50
2023-05-23T23:31:14.910Z,4.88
2023-05-23T23:36:17.877Z,4.55
2023-05-23T23:41:21.374Z,5.50
2023-05-23T23:46:24.500Z,5.05
2023-05-23T23:51:27.496Z,5.30
2023-05-23T23:56:30.407Z,5.38
